createdAt,value
2022-10-28T00:00:40.126Z,59.31
2022-10-28T00:01:43.987Z,58.91
2022-10-28T00:02:37.545Z,59.31
2022-10-28T00:03:31.032Z,59.11
2022-10-28T00:04:24.615Z,58.91
2022-10-28T00:05:08.239Z,59.31
2022-10-28T00:06:12.643Z,59.14
2022-10-28T00:07:06.263Z,58.91
2022-10-28T00:07:59.701Z,59.31
2022-10-28T00:08:43.355Z,59.01
2022-10-28T00:09:36.896Z,59.11
2022-10-28T00:10:20.547Z,59.01
2022-10-28T00:11:14.093Z,59.41
2022-10-28T00:12:07.636Z,58.91
2022-10-28T00:13:01.197Z,59.21
2022-10-28T00:13:54.738Z,58.71
2022-10-28T00:14:48.293Z,59.11
2022-10-28T00:15:41.837Z,59.11
2022-10-28T00:16:35.415Z,59.01
2022-10-28T00:17:39.190Z,59.11
2022-10-28T00:18:22.868Z,59.11
2022-10-28T00:19:16.407Z,59.31
2022-10-28T00:20:00.088Z,58.91
2022-10-28T00:20:53.614Z,59.21
2022-10-28T00:21:47.150Z,58.94
2022-10-28T00:22:40.725Z,59.31
2022-10-28T00:23:34.270Z,58.81
2022-10-28T00:24:27.826Z,59.11
2022-10-28T00:25:21.354Z,58.91
2022-10-28T00:26:14.887Z,59.01
2022-10-28T00:27:08.418Z,59.11
2022-10-28T00:28:01.940Z,59.31
2022-10-28T00:28:55.465Z,58.91
2022-10-28T00:29:49.010Z,59.11
2022-10-28T00:30:42.552Z,58.91
2022-10-28T00:31:36.126Z,59.11
2022-10-28T00:32:29.679Z,59.11
2022-10-28T00:33:23.234Z,59.11
2022-10-28T00:34:16.758Z,58.84
2022-10-28T00:35:10.289Z,59.14
2022-10-28T00:36:04.435Z,59.31
2022-10-28T00:36:57.362Z,59.11
2022-10-28T00:37:50.908Z,59.11
2022-10-28T00:38:44.431Z,59.21
2022-10-28T00:39:37.959Z,59.31
2022-10-28T00:40:31.490Z,59.14
2022-10-28T00:41:25.014Z,59.14
2022-10-28T00:42:18.541Z,58.91
2022-10-28T00:43:12.080Z,59.53
2022-10-28T00:44:05.662Z,59.11
2022-10-28T00:45:09.453Z,58.91
2022-10-28T00:46:02.985Z,59.11
2022-10-28T00:46:56.510Z,59.11
2022-10-28T00:47:50.279Z,59.11
2022-10-28T00:48:43.573Z,59.11
2022-10-28T00:49:37.123Z,59.11
2022-10-28T00:50:30.648Z,59.11
2022-10-28T00:51:24.181Z,58.91
2022-10-28T00:52:17.728Z,59.14
2022-10-28T00:53:11.288Z,58.91
2022-10-28T00:54:04.791Z,59.11
2022-10-28T00:54:58.324Z,59.34
2022-10-28T00:55:51.862Z,59.04
2022-10-28T00:56:45.426Z,59.14
2022-10-28T00:57:38.960Z,59.44
2022-10-28T00:58:32.492Z,59.11
2022-10-28T00:59:26.022Z,59.04
2022-10-28T01:00:19.558Z,59.11
2022-10-28T01:01:13.139Z,59.11
2022-10-28T01:02:06.719Z,59.53
2022-10-28T01:03:00.157Z,59.31
2022-10-28T01:03:53.700Z,59.34
2022-10-28T01:04:47.236Z,58.91
2022-10-28T01:05:40.805Z,58.84
2022-10-28T01:06:34.362Z,59.04
2022-10-28T01:07:27.896Z,59.14
2022-10-28T01:08:21.449Z,59.53
2022-10-28T01:09:15.042Z,58.91
2022-10-28T01:10:08.523Z,59.14
2022-10-28T01:11:02.071Z,59.04
2022-10-28T01:11:55.594Z,59.04
2022-10-28T01:12:49.131Z,59.14
2022-10-28T01:13:42.660Z,59.14
2022-10-28T01:14:46.474Z,59.14
2022-10-28T01:15:40.013Z,59.11
2022-10-28T01:16:33.544Z,59.14
2022-10-28T01:17:27.074Z,59.14
2022-10-28T01:18:20.600Z,58.84
2022-10-28T01:19:04.275Z,59.14
2022-10-28T01:19:57.805Z,58.94
2022-10-28T01:20:51.335Z,58.94
2022-10-28T01:21:44.905Z,58.91
2022-10-28T01:22:38.439Z,59.11
2022-10-28T01:23:32.036Z,59.31
2022-10-28T01:24:25.593Z,59.11
2022-10-28T01:25:19.125Z,58.94
2022-10-28T01:26:12.685Z,59.11
2022-10-28T01:27:06.204Z,59.11
2022-10-28T01:27:49.863Z,58.91
2022-10-28T01:28:43.398Z,58.94
2022-10-28T01:29:36.937Z,58.84
2022-10-28T01:30:30.486Z,59.34
2022-10-28T01:31:24.022Z,59.34
2022-10-28T01:32:17.556Z,59.11
2022-10-28T01:33:11.098Z,58.94
2022-10-28T01:34:04.646Z,59.11
2022-10-28T01:34:58.195Z,59.14
2022-10-28T01:35:51.728Z,59.04
2022-10-28T01:36:45.285Z,59.11
2022-10-28T01:37:38.821Z,59.04
2022-10-28T01:38:42.635Z,58.71
2022-10-28T01:39:36.157Z,59.14
2022-10-28T01:40:29.715Z,59.14
2022-10-28T01:41:23.240Z,58.81
2022-10-28T01:42:16.774Z,59.14
2022-10-28T01:43:10.300Z,59.14
2022-10-28T01:44:14.085Z,59.01
2022-10-28T01:45:07.632Z,58.84
2022-10-28T01:46:01.170Z,59.14
2022-10-28T01:46:54.702Z,59.34
2022-10-28T01:47:48.306Z,59.11
2022-10-28T01:48:41.834Z,59.14
2022-10-28T01:49:35.363Z,59.53
2022-10-28T01:50:28.903Z,59.34
2022-10-28T01:51:22.433Z,59.14
2022-10-28T01:52:15.966Z,59.14
2022-10-28T01:53:09.507Z,59.14
2022-10-28T01:54:03.050Z,59.14
2022-10-28T01:54:56.568Z,58.94
2022-10-28T01:55:50.102Z,59.14
2022-10-28T01:56:43.628Z,59.14
2022-10-28T01:57:37.169Z,59.14
2022-10-28T01:58:30.780Z,59.04
2022-10-28T01:59:24.310Z,59.23
2022-10-28T02:00:17.842Z,59.04
2022-10-28T02:01:11.525Z,59.14
2022-10-28T02:01:55.165Z,59.14
2022-10-28T02:02:48.585Z,59.14
2022-10-28T02:03:42.133Z,59.14
2022-10-28T02:04:35.665Z,59.14
2022-10-28T02:05:29.194Z,59.04
2022-10-28T02:06:22.718Z,59.23
2022-10-28T02:07:16.277Z,59.34
2022-10-28T02:08:09.798Z,59.14
2022-10-28T02:08:53.534Z,58.84
2022-10-28T02:09:47.089Z,59.14
2022-10-28T02:10:40.626Z,58.84
2022-10-28T02:11:34.166Z,59.14
2022-10-28T02:12:27.732Z,59.14
2022-10-28T02:13:21.313Z,59.14
2022-10-28T02:14:14.849Z,58.94
2022-10-28T02:14:58.585Z,59.23
2022-10-28T02:15:52.094Z,59.34
2022-10-28T02:16:45.637Z,59.14
2022-10-28T02:17:50.035Z,59.14
2022-10-28T02:18:43.573Z,59.14
2022-10-28T02:19:37.113Z,58.84
2022-10-28T02:20:30.637Z,59.14
2022-10-28T02:21:14.313Z,59.04
2022-10-28T02:22:07.836Z,58.84
2022-10-28T02:23:01.368Z,59.14
2022-10-28T02:23:54.915Z,58.94
2022-10-28T02:24:48.458Z,58.84
2022-10-28T02:25:42.007Z,58.84
2022-10-28T02:26:35.517Z,58.84
2022-10-28T02:27:29.055Z,59.14
2022-10-28T02:28:12.715Z,59.04
2022-10-28T02:29:06.250Z,59.04
2022-10-28T02:29:49.907Z,59.14
2022-10-28T02:30:43.439Z,59.34
2022-10-28T02:31:37.011Z,58.84
2022-10-28T02:32:30.547Z,58.84
2022-10-28T02:33:24.110Z,59.04
2022-10-28T02:34:17.666Z,59.14
2022-10-28T02:35:01.359Z,58.84
2022-10-28T02:35:45.041Z,59.04
2022-10-28T02:36:38.561Z,58.84
2022-10-28T02:37:32.081Z,58.84
2022-10-28T02:38:25.608Z,58.84
2022-10-28T02:39:19.173Z,59.14
2022-10-28T02:40:12.709Z,58.84
2022-10-28T02:41:06.250Z,59.14
2022-10-28T02:41:59.768Z,59.14
2022-10-28T02:42:53.749Z,58.84
2022-10-28T02:43:46.858Z,59.14
2022-10-28T02:44:40.391Z,58.94
2022-10-28T02:45:33.923Z,58.94
2022-10-28T02:46:27.465Z,59.14
2022-10-28T02:47:11.115Z,59.44
2022-10-28T02:47:54.779Z,58.84
2022-10-28T02:48:48.321Z,59.14
2022-10-28T02:49:41.876Z,58.94
2022-10-28T02:50:35.403Z,59.44
2022-10-28T02:51:28.933Z,58.84
2022-10-28T02:52:22.471Z,59.04
2022-10-28T02:53:16.111Z,59.14
2022-10-28T02:54:09.558Z,59.14
2022-10-28T02:55:03.105Z,59.14
2022-10-28T02:55:56.635Z,59.23
2022-10-28T02:56:50.202Z,58.84
2022-10-28T02:57:43.706Z,59.14
2022-10-28T02:58:47.500Z,59.04
2022-10-28T02:59:41.043Z,59.14
2022-10-28T03:00:34.570Z,58.84
2022-10-28T03:01:28.255Z,59.04
2022-10-28T03:02:21.708Z,59.23
2022-10-28T03:03:15.176Z,59.14
2022-10-28T03:04:08.725Z,58.84
2022-10-28T03:05:02.259Z,59.23
2022-10-28T03:06:06.055Z,58.84
2022-10-28T03:07:09.836Z,59.23
2022-10-28T03:08:03.375Z,59.04
2022-10-28T03:08:47.027Z,58.84
2022-10-28T03:09:40.568Z,59.14
2022-10-28T03:10:34.111Z,58.84
2022-10-28T03:11:27.643Z,58.84
2022-10-28T03:12:21.191Z,59.14
2022-10-28T03:13:14.699Z,59.23
2022-10-28T03:14:10.734Z,59.23
2022-10-28T03:15:01.782Z,59.14
2022-10-28T03:15:55.316Z,58.84
2022-10-28T03:16:48.862Z,59.14
2022-10-28T03:17:42.395Z,58.94
2022-10-28T03:18:35.929Z,59.23
2022-10-28T03:19:29.453Z,59.14
2022-10-28T03:20:22.992Z,59.23
2022-10-28T03:21:16.530Z,58.84
2022-10-28T03:22:10.077Z,59.23
2022-10-28T03:23:03.617Z,59.23
2022-10-28T03:23:57.162Z,59.23
2022-10-28T03:24:50.689Z,59.23
2022-10-28T03:25:44.398Z,59.04
2022-10-28T03:26:37.929Z,59.04
2022-10-28T03:27:31.490Z,59.04
2022-10-28T03:28:25.008Z,59.14
2022-10-28T03:29:18.533Z,58.94
2022-10-28T03:30:12.059Z,59.14
2022-10-28T03:31:05.596Z,59.04
2022-10-28T03:31:59.119Z,59.23
2022-10-28T03:32:53.057Z,59.23
2022-10-28T03:33:46.194Z,59.14
2022-10-28T03:34:39.726Z,59.23
2022-10-28T03:35:33.251Z,59.23
2022-10-28T03:36:26.774Z,59.23
2022-10-28T03:37:20.297Z,59.23
2022-10-28T03:38:13.833Z,59.23
2022-10-28T03:39:07.361Z,59.14
2022-10-28T03:40:00.883Z,59.23
2022-10-28T03:40:54.410Z,59.04
2022-10-28T03:41:47.938Z,58.94
2022-10-28T03:42:41.536Z,59.04
2022-10-28T03:43:35.028Z,59.04
2022-10-28T03:44:28.557Z,58.94
2022-10-28T03:45:22.115Z,59.23
2022-10-28T03:46:15.603Z,59.04
2022-10-28T03:47:09.134Z,59.23
2022-10-28T03:48:12.934Z,59.14
2022-10-28T03:49:06.474Z,59.53
2022-10-28T03:49:59.992Z,58.64
2022-10-28T03:50:53.528Z,58.73
2022-10-28T03:51:47.088Z,59.04
2022-10-28T03:52:40.621Z,58.73
2022-10-28T03:53:34.148Z,58.64
2022-10-28T03:54:17.802Z,58.73
2022-10-28T03:55:11.323Z,58.84
2022-10-28T03:56:15.129Z,58.84
2022-10-28T03:57:08.676Z,58.64
2022-10-28T03:58:02.269Z,58.73
2022-10-28T03:58:55.782Z,58.73
2022-10-28T03:59:49.320Z,59.14
2022-10-28T04:00:32.976Z,58.84
2022-10-28T04:01:26.628Z,58.73
2022-10-28T04:02:20.129Z,58.84
2022-10-28T04:03:13.557Z,58.84
2022-10-28T04:03:57.228Z,58.84
2022-10-28T04:04:50.756Z,58.73
2022-10-28T04:05:44.285Z,58.73
2022-10-28T04:06:48.080Z,58.73
2022-10-28T04:07:51.886Z,58.84
2022-10-28T04:08:45.426Z,58.64
2022-10-28T04:09:38.961Z,58.73
2022-10-28T04:10:32.498Z,59.04
2022-10-28T04:11:26.037Z,59.04
2022-10-28T04:12:19.582Z,58.84
2022-10-28T04:13:13.131Z,58.84
2022-10-28T04:14:06.658Z,59.04
2022-10-28T04:15:00.189Z,58.64
2022-10-28T04:15:53.714Z,58.84
2022-10-28T04:16:47.242Z,59.04
2022-10-28T04:17:30.904Z,58.54
2022-10-28T04:18:24.433Z,58.94
2022-10-28T04:19:18.021Z,58.54
2022-10-28T04:20:11.559Z,58.51
2022-10-28T04:21:05.088Z,58.61
2022-10-28T04:21:58.622Z,58.84
2022-10-28T04:22:42.273Z,58.73
2022-10-28T04:23:35.806Z,58.73
2022-10-28T04:24:29.348Z,58.61
2022-10-28T04:25:22.892Z,58.54
2022-10-28T04:26:16.401Z,58.71
2022-10-28T04:27:09.936Z,58.61
2022-10-28T04:28:03.465Z,58.61
2022-10-28T04:28:57.021Z,58.71
2022-10-28T04:29:50.538Z,58.51
2022-10-28T04:30:44.077Z,58.81
2022-10-28T04:31:27.745Z,58.61
2022-10-28T04:32:21.269Z,58.71
2022-10-28T04:33:14.800Z,58.61
2022-10-28T04:34:08.328Z,58.61
2022-10-28T04:35:13.138Z,58.71
2022-10-28T04:36:06.663Z,58.51
2022-10-28T04:37:00.221Z,58.51
2022-10-28T04:37:54.235Z,58.61
2022-10-28T04:38:47.293Z,58.41
2022-10-28T04:39:51.091Z,58.91
2022-10-28T04:40:44.618Z,58.51
2022-10-28T04:41:48.405Z,58.51
2022-10-28T04:42:41.952Z,58.81
2022-10-28T04:43:35.481Z,58.71
2022-10-28T04:44:29.025Z,58.81
2022-10-28T04:45:22.534Z,59.01
2022-10-28T04:46:16.563Z,59.11
2022-10-28T04:47:10.088Z,59.31
2022-10-28T04:48:03.650Z,59.01
2022-10-28T04:48:57.172Z,59.11
2022-10-28T04:50:00.957Z,59.11
2022-10-28T04:50:54.491Z,58.91
2022-10-28T04:51:48.017Z,59.01
2022-10-28T04:52:42.194Z,59.11
2022-10-28T04:53:45.944Z,59.11
2022-10-28T04:54:39.506Z,59.01
2022-10-28T04:55:33.032Z,58.81
2022-10-28T04:56:36.820Z,59.11
2022-10-28T04:57:20.481Z,58.71
2022-10-28T04:58:14.055Z,59.64
2022-10-28T04:59:07.572Z,59.81
2022-10-28T05:00:01.113Z,59.51
2022-10-28T05:00:54.635Z,59.61
2022-10-28T05:01:48.243Z,59.41
2022-10-28T05:02:45.946Z,59.51
2022-10-28T05:03:35.226Z,59.11
2022-10-28T05:04:28.750Z,59.70
2022-10-28T05:05:22.288Z,59.61
2022-10-28T05:06:15.807Z,59.51
2022-10-28T05:07:10.351Z,58.81
2022-10-28T05:07:54.115Z,59.61
2022-10-28T05:08:47.377Z,59.61
2022-10-28T05:09:40.905Z,58.71
2022-10-28T05:10:34.447Z,58.91
2022-10-28T05:11:27.979Z,58.71
2022-10-28T05:12:21.510Z,59.01
2022-10-28T05:13:15.044Z,58.81
2022-10-28T05:14:08.577Z,58.61
2022-10-28T05:15:02.112Z,59.21
2022-10-28T05:15:55.660Z,58.91
2022-10-28T05:16:49.177Z,59.51
2022-10-28T05:17:42.710Z,59.01
2022-10-28T05:18:36.287Z,59.21
2022-10-28T05:19:29.773Z,59.31
2022-10-28T05:20:23.304Z,58.71
2022-10-28T05:21:16.828Z,58.91
2022-10-28T05:22:10.358Z,59.01
2022-10-28T05:23:03.905Z,59.21
2022-10-28T05:23:57.442Z,59.21
2022-10-28T05:24:50.974Z,58.81
2022-10-28T05:25:44.498Z,59.11
2022-10-28T05:26:38.030Z,59.11
2022-10-28T05:27:31.549Z,59.41
2022-10-28T05:28:25.083Z,59.01
2022-10-28T05:29:18.616Z,58.81
2022-10-28T05:30:12.139Z,59.01
2022-10-28T05:31:05.685Z,59.41
2022-10-28T05:31:59.257Z,58.81
2022-10-28T05:32:55.227Z,59.51
2022-10-28T05:33:46.241Z,58.91
2022-10-28T05:34:39.763Z,59.11
2022-10-28T05:35:33.407Z,58.91
2022-10-28T05:36:26.835Z,58.81
2022-10-28T05:37:20.359Z,59.11
2022-10-28T05:38:13.889Z,58.81
2022-10-28T05:39:07.429Z,59.01
2022-10-28T05:40:00.964Z,58.91
2022-10-28T05:40:54.492Z,58.81
2022-10-28T05:41:48.035Z,58.81
2022-10-28T05:42:41.564Z,59.11
2022-10-28T05:43:35.099Z,58.81
2022-10-28T05:44:28.623Z,59.21
2022-10-28T05:45:22.222Z,58.81
2022-10-28T05:46:15.726Z,58.81
2022-10-28T05:47:09.234Z,58.81
2022-10-28T05:48:02.761Z,58.81
2022-10-28T05:48:56.295Z,59.11
2022-10-28T05:49:49.852Z,58.81
2022-10-28T05:50:33.514Z,58.81
2022-10-28T05:51:27.054Z,59.01
2022-10-28T05:52:20.592Z,59.01
2022-10-28T05:53:04.256Z,59.11
2022-10-28T05:53:57.789Z,59.01
2022-10-28T05:54:51.309Z,59.21
2022-10-28T05:55:34.969Z,59.01
2022-10-28T05:56:28.510Z,59.01
2022-10-28T05:57:22.032Z,59.01
2022-10-28T05:58:15.557Z,59.01
2022-10-28T05:59:09.098Z,59.01
2022-10-28T06:00:02.620Z,58.81
2022-10-28T06:00:56.149Z,59.11
2022-10-28T06:01:49.802Z,58.81
2022-10-28T06:02:43.222Z,59.11
2022-10-28T06:03:36.789Z,57.61
2022-10-28T06:04:30.282Z,57.11
2022-10-28T06:05:23.806Z,57.11
2022-10-28T06:06:17.412Z,57.31
2022-10-28T06:07:10.867Z,57.41
2022-10-28T06:08:04.391Z,57.74
2022-10-28T06:08:57.913Z,57.34
2022-10-28T06:09:51.452Z,57.31
2022-10-28T06:10:44.982Z,57.34
2022-10-28T06:11:36.977Z,56.94
2022-10-28T06:12:30.566Z,56.94
2022-10-28T06:13:24.041Z,57.24
2022-10-28T06:14:17.559Z,57.44
2022-10-28T06:15:11.091Z,57.34
2022-10-28T06:16:04.627Z,57.54
2022-10-28T06:16:58.179Z,57.44
2022-10-28T06:17:51.690Z,57.34
2022-10-28T06:18:45.230Z,58.44
2022-10-28T06:19:38.756Z,53.77
2022-10-28T06:20:32.297Z,54.35
2022-10-28T06:21:25.822Z,55.70
2022-10-28T06:22:09.475Z,57.10
2022-10-28T06:23:03.004Z,58.00
2022-10-28T06:23:56.528Z,59.78
2022-10-28T06:24:50.055Z,60.05
2022-10-28T06:25:43.590Z,59.12
2022-10-28T06:26:37.117Z,59.62
2022-10-28T06:27:20.771Z,59.09
2022-10-28T06:28:14.300Z,58.89
2022-10-28T06:29:07.829Z,58.06
2022-10-28T06:30:01.354Z,57.46
2022-10-28T06:30:54.879Z,57.87
2022-10-28T06:31:48.995Z,58.47
2022-10-28T06:32:42.544Z,58.17
2022-10-28T06:33:36.064Z,58.26
2022-10-28T06:34:29.593Z,57.97
2022-10-28T06:35:23.171Z,57.74
2022-10-28T06:36:16.712Z,58.04
2022-10-28T06:37:00.380Z,57.46
2022-10-28T06:37:54.338Z,57.46
2022-10-28T06:38:47.441Z,57.74
2022-10-28T06:39:40.985Z,57.34
2022-10-28T06:40:34.514Z,58.24
2022-10-28T06:41:28.050Z,58.34
2022-10-28T06:42:21.591Z,57.24
2022-10-28T06:43:15.119Z,57.74
2022-10-28T06:44:08.662Z,57.74
2022-10-28T06:45:02.192Z,57.74
2022-10-28T06:45:55.763Z,57.54
2022-10-28T06:46:50.785Z,58.14
2022-10-28T06:47:44.310Z,57.93
2022-10-28T06:48:27.973Z,58.14
2022-10-28T06:49:21.491Z,58.04
2022-10-28T06:50:15.022Z,57.93
2022-10-28T06:51:08.558Z,57.74
2022-10-28T06:51:52.230Z,57.54
2022-10-28T06:53:39.293Z,57.84
2022-10-28T06:54:32.826Z,57.64
2022-10-28T06:55:26.351Z,57.84
2022-10-28T06:56:19.881Z,57.84
2022-10-28T06:57:13.410Z,57.74
2022-10-28T06:58:06.942Z,57.84
2022-10-28T06:59:00.465Z,57.44
2022-10-28T06:59:53.992Z,57.34
2022-10-28T07:00:47.531Z,57.93
2022-10-28T07:01:41.244Z,57.84
2022-10-28T07:02:34.687Z,57.84
2022-10-28T07:03:18.282Z,58.64
2022-10-28T07:04:22.174Z,58.24
2022-10-28T07:05:15.613Z,58.14
2022-10-28T07:06:09.218Z,58.24
2022-10-28T07:07:02.736Z,58.73
2022-10-28T07:07:56.430Z,58.24
2022-10-28T07:08:49.761Z,58.14
2022-10-28T07:09:43.296Z,57.93
2022-10-28T07:10:36.836Z,57.61
2022-10-28T07:11:30.362Z,57.71
2022-10-28T07:12:23.897Z,57.61
2022-10-28T07:13:17.433Z,57.51
2022-10-28T07:14:10.966Z,57.71
2022-10-28T07:14:54.617Z,57.64
2022-10-28T07:15:48.162Z,57.61
2022-10-28T07:16:41.704Z,57.41
2022-10-28T07:17:35.231Z,57.81
2022-10-28T07:18:28.765Z,58.11
2022-10-28T07:19:22.793Z,58.01
2022-10-28T07:20:15.849Z,58.11
2022-10-28T07:21:09.361Z,58.01
2022-10-28T07:22:02.895Z,57.91
2022-10-28T07:22:56.453Z,57.31
2022-10-28T07:23:49.982Z,57.81
2022-10-28T07:24:43.514Z,57.71
2022-10-28T07:25:37.041Z,58.61
2022-10-28T07:26:30.569Z,57.71
2022-10-28T07:27:24.100Z,58.01
2022-10-28T07:28:17.627Z,57.71
2022-10-28T07:29:11.156Z,57.71
2022-10-28T07:30:04.695Z,57.81
2022-10-28T07:30:58.278Z,57.71
2022-10-28T07:31:51.771Z,57.81
2022-10-28T07:32:45.301Z,57.71
2022-10-28T07:33:38.835Z,58.01
2022-10-28T07:34:32.370Z,57.91
2022-10-28T07:35:25.905Z,57.61
2022-10-28T07:36:19.425Z,58.01
2022-10-28T07:37:12.959Z,58.21
2022-10-28T07:38:06.494Z,58.31
2022-10-28T07:39:00.013Z,58.01
2022-10-28T07:39:53.544Z,57.81
2022-10-28T07:40:37.198Z,57.71
2022-10-28T07:41:20.858Z,57.61
2022-10-28T07:42:14.381Z,57.61
2022-10-28T07:43:07.917Z,57.71
2022-10-28T07:44:01.460Z,57.91
2022-10-28T07:44:45.121Z,57.81
2022-10-28T07:45:38.644Z,58.08
2022-10-28T07:46:32.180Z,57.61
2022-10-28T07:47:25.721Z,57.91
2022-10-28T07:48:19.253Z,58.01
2022-10-28T07:49:12.787Z,57.61
2022-10-28T07:50:06.335Z,57.91
2022-10-28T07:50:59.873Z,58.31
2022-10-28T07:51:53.387Z,57.68
2022-10-28T07:52:46.924Z,58.08
2022-10-28T07:53:40.462Z,57.78
2022-10-28T07:54:33.984Z,57.28
2022-10-28T07:55:27.537Z,57.48
2022-10-28T07:56:21.070Z,58.01
2022-10-28T07:57:14.594Z,58.11
2022-10-28T07:58:08.132Z,57.71
2022-10-28T07:59:01.653Z,57.81
2022-10-28T07:59:55.177Z,57.51
2022-10-28T08:00:48.751Z,57.71
2022-10-28T08:01:42.391Z,57.31
2022-10-28T08:02:35.772Z,57.91
2022-10-28T08:03:38.086Z,57.31
2022-10-28T08:04:22.830Z,57.41
2022-10-28T08:05:16.377Z,58.21
2022-10-28T08:06:09.901Z,58.21
2022-10-28T08:07:03.416Z,58.31
2022-10-28T08:07:57.138Z,58.11
2022-10-28T08:08:50.488Z,58.01
2022-10-28T08:09:34.145Z,58.01
2022-10-28T08:10:27.676Z,57.91
2022-10-28T08:11:21.196Z,58.01
2022-10-28T08:12:14.721Z,58.41
2022-10-28T08:13:18.505Z,57.51
2022-10-28T08:14:12.032Z,57.48
2022-10-28T08:15:05.570Z,57.58
2022-10-28T08:15:59.107Z,57.68
2022-10-28T08:16:52.635Z,57.68
2022-10-28T08:17:46.165Z,57.78
2022-10-28T08:18:39.689Z,57.61
2022-10-28T08:19:33.218Z,58.38
2022-10-28T08:20:26.747Z,57.71
2022-10-28T08:21:20.296Z,58.01
2022-10-28T08:22:13.802Z,57.81
2022-10-28T08:23:07.560Z,57.31
2022-10-28T08:24:00.867Z,58.31
2022-10-28T08:24:54.399Z,57.81
2022-10-28T08:25:47.942Z,57.78
2022-10-28T08:26:41.471Z,57.98
2022-10-28T08:27:34.999Z,57.48
2022-10-28T08:28:28.521Z,57.48
2022-10-28T08:29:25.077Z,57.68
2022-10-28T08:30:15.567Z,57.78
2022-10-28T08:31:08.412Z,57.58
2022-10-28T08:31:52.771Z,57.46
2022-10-28T08:32:46.310Z,57.86
2022-10-28T08:33:29.972Z,57.35
2022-10-28T08:34:23.492Z,57.35
2022-10-28T08:35:17.029Z,57.35
2022-10-28T08:36:10.557Z,56.96
2022-10-28T08:37:04.192Z,56.85
2022-10-28T08:37:57.632Z,57.15
2022-10-28T08:38:51.172Z,57.86
2022-10-28T08:39:44.698Z,57.56
2022-10-28T08:40:38.227Z,57.88
2022-10-28T08:41:31.767Z,57.46
2022-10-28T08:42:25.323Z,57.98
2022-10-28T08:43:20.718Z,57.39
2022-10-28T08:44:12.379Z,57.68
2022-10-28T08:45:05.908Z,58.18
2022-10-28T08:45:59.481Z,57.98
2022-10-28T08:46:52.976Z,57.48
2022-10-28T08:47:46.540Z,57.39
2022-10-28T08:48:40.022Z,56.98
2022-10-28T08:49:33.555Z,57.39
2022-10-28T08:50:27.099Z,57.26
2022-10-28T08:51:21.659Z,57.88
2022-10-28T08:52:15.377Z,57.28
2022-10-28T08:53:09.116Z,57.78
2022-10-28T08:54:03.866Z,57.88
2022-10-28T08:54:57.468Z,58.06
2022-10-28T08:55:51.086Z,58.38
2022-10-28T08:56:44.708Z,57.86
2022-10-28T08:57:39.279Z,57.35
2022-10-28T08:58:33.827Z,57.26
2022-10-28T08:59:27.423Z,56.96
2022-10-28T09:00:21.236Z,56.96
2022-10-28T09:01:14.884Z,57.26
2022-10-28T09:02:08.697Z,57.06
2022-10-28T09:03:02.323Z,57.06
2022-10-28T09:03:56.897Z,56.53
2022-10-28T09:04:51.435Z,57.03
2022-10-28T09:05:45.989Z,57.06
2022-10-28T09:06:40.594Z,57.03
2022-10-28T09:07:34.348Z,57.53
2022-10-28T09:08:28.047Z,56.63
2022-10-28T09:09:21.780Z,56.93
2022-10-28T09:10:15.398Z,56.63
2022-10-28T09:11:09.123Z,56.83
2022-10-28T09:12:03.681Z,56.83
2022-10-28T09:12:57.402Z,56.83
2022-10-28T09:13:51.125Z,56.73
2022-10-28T09:14:44.845Z,56.73
2022-10-28T09:15:38.504Z,56.83
2022-10-28T09:16:32.191Z,57.03
2022-10-28T09:17:25.917Z,56.93
2022-10-28T09:18:19.534Z,56.93
2022-10-28T09:19:13.272Z,57.03
2022-10-28T09:20:06.883Z,56.96
2022-10-28T09:21:00.506Z,57.03
2022-10-28T09:21:54.245Z,57.03
2022-10-28T09:22:47.973Z,56.73
2022-10-28T09:23:31.655Z,56.83
2022-10-28T09:24:25.390Z,56.93
2022-10-28T09:25:19.009Z,57.03
2022-10-28T09:26:12.731Z,56.93
2022-10-28T09:27:07.379Z,57.03
2022-10-28T09:28:01.094Z,56.93
2022-10-28T09:28:54.765Z,56.93
2022-10-28T09:29:49.307Z,57.03
2022-10-28T09:30:42.890Z,57.03
2022-10-28T09:31:36.516Z,57.43
2022-10-28T09:32:30.352Z,56.83
2022-10-28T09:33:23.959Z,57.03
2022-10-28T09:34:17.706Z,57.03
2022-10-28T09:35:11.415Z,56.73
2022-10-28T09:36:05.041Z,56.81
2022-10-28T09:36:58.765Z,56.81
2022-10-28T09:37:53.444Z,56.93
2022-10-28T09:38:47.249Z,57.53
2022-10-28T09:39:40.967Z,57.20
2022-10-28T09:40:34.798Z,57.33
2022-10-28T09:41:28.416Z,56.60
2022-10-28T09:42:22.139Z,56.30
2022-10-28T09:43:15.760Z,56.40
2022-10-28T09:44:09.393Z,55.91
2022-10-28T09:45:03.008Z,55.91
2022-10-28T09:45:57.664Z,56.30
2022-10-28T09:46:51.383Z,56.21
2022-10-28T09:47:46.032Z,56.70
2022-10-28T09:48:39.648Z,56.30
2022-10-28T09:49:33.275Z,56.60
2022-10-28T09:50:26.894Z,56.18
2022-10-28T09:51:21.455Z,56.48
2022-10-28T09:52:16.994Z,56.18
2022-10-28T09:53:10.651Z,56.08
2022-10-28T09:54:04.254Z,56.60
2022-10-28T09:54:58.869Z,56.08
2022-10-28T09:55:53.451Z,55.88
2022-10-28T09:56:47.084Z,55.98
2022-10-28T09:57:40.898Z,55.88
2022-10-28T09:58:34.729Z,55.68
2022-10-28T09:59:28.346Z,56.27
2022-10-28T10:00:22.081Z,56.18
2022-10-28T10:01:15.864Z,55.98
2022-10-28T10:02:10.599Z,56.51
2022-10-28T10:03:04.303Z,56.10
2022-10-28T10:03:58.829Z,56.21
2022-10-28T10:04:52.429Z,57.00
2022-10-28T10:05:46.064Z,57.20
2022-10-28T10:06:29.752Z,57.30
2022-10-28T10:07:23.374Z,57.20
2022-10-28T10:08:17.013Z,56.48
2022-10-28T10:09:10.621Z,56.38
2022-10-28T10:10:58.896Z,56.30
2022-10-28T10:11:53.540Z,56.27
2022-10-28T10:12:51.408Z,56.87
2022-10-28T10:13:42.747Z,56.08
2022-10-28T10:14:36.474Z,56.48
2022-10-28T10:15:31.017Z,56.57
2022-10-28T10:16:24.624Z,56.08
2022-10-28T10:17:18.363Z,56.27
2022-10-28T10:18:12.078Z,56.18
2022-10-28T10:19:06.729Z,56.68
2022-10-28T10:20:01.489Z,56.38
2022-10-28T10:20:55.111Z,56.27
2022-10-28T10:21:49.652Z,56.08
2022-10-28T10:22:44.209Z,56.38
2022-10-28T10:24:32.552Z,56.18
2022-10-28T10:25:27.100Z,56.38
2022-10-28T10:26:20.832Z,56.57
2022-10-28T10:27:14.654Z,56.27
2022-10-28T10:28:08.272Z,56.18
2022-10-28T10:29:01.889Z,56.08
2022-10-28T10:29:56.032Z,55.98
2022-10-28T10:30:50.676Z,56.38
2022-10-28T10:31:44.398Z,56.27
2022-10-28T10:32:38.123Z,56.38
2022-10-28T10:33:31.862Z,56.77
2022-10-28T10:34:25.674Z,56.27
2022-10-28T10:35:20.449Z,56.27
2022-10-28T10:36:14.078Z,56.68
2022-10-28T10:37:08.732Z,56.27
2022-10-28T10:38:02.521Z,56.27
2022-10-28T10:38:57.121Z,56.27
2022-10-28T10:39:50.682Z,56.38
2022-10-28T10:40:44.923Z,56.27
2022-10-28T10:41:38.552Z,56.77
2022-10-28T10:42:32.170Z,56.38
2022-10-28T10:43:25.798Z,56.48
2022-10-28T10:44:20.357Z,56.38
2022-10-28T10:45:14.067Z,56.18
2022-10-28T10:46:08.729Z,56.38
2022-10-28T10:47:06.009Z,56.18
2022-10-28T10:47:56.449Z,56.57
2022-10-28T10:48:49.793Z,55.98
2022-10-28T10:49:43.407Z,56.27
2022-10-28T10:50:37.031Z,55.88
2022-10-28T10:51:31.602Z,55.98
2022-10-28T10:52:26.310Z,55.95
2022-10-28T10:53:19.762Z,55.48
2022-10-28T10:54:14.477Z,56.57
2022-10-28T10:55:08.119Z,55.95
2022-10-28T10:56:02.659Z,55.85
2022-10-28T10:57:50.106Z,55.95
2022-10-28T10:58:44.653Z,56.05
2022-10-28T10:59:38.381Z,56.65
2022-10-28T11:00:32.942Z,55.98
2022-10-28T11:01:26.885Z,56.05
2022-10-28T11:02:20.734Z,55.85
2022-10-28T11:03:14.199Z,55.76
2022-10-28T11:04:08.752Z,55.68
2022-10-28T11:05:02.472Z,55.95
2022-10-28T11:05:48.047Z,56.15
2022-10-28T11:06:40.923Z,55.95
2022-10-28T11:07:34.706Z,55.95
2022-10-28T11:08:29.279Z,55.85
2022-10-28T11:09:24.054Z,55.85
2022-10-28T11:10:17.665Z,56.18
2022-10-28T11:11:11.279Z,55.98
2022-10-28T11:12:05.676Z,56.45
2022-10-28T11:12:58.628Z,56.18
2022-10-28T11:13:52.249Z,55.95
2022-10-28T11:14:46.806Z,55.85
2022-10-28T11:15:40.636Z,55.55
2022-10-28T11:16:34.565Z,56.15
2022-10-28T11:17:28.388Z,56.35
2022-10-28T11:18:21.935Z,55.46
2022-10-28T11:19:15.565Z,55.73
2022-10-28T11:19:59.237Z,56.12
2022-10-28T11:20:42.909Z,55.93
2022-10-28T11:21:36.510Z,55.63
2022-10-28T11:22:30.077Z,55.63
2022-10-28T11:23:23.678Z,55.82
2022-10-28T11:24:17.348Z,55.82
2022-10-28T11:25:10.972Z,55.82
2022-10-28T11:26:04.705Z,55.73
2022-10-28T11:26:48.492Z,55.63
2022-10-28T11:27:42.048Z,55.63
2022-10-28T11:28:35.594Z,55.82
2022-10-28T11:29:29.140Z,55.60
2022-10-28T11:30:22.752Z,55.40